CheckWX is a tool to help pilots better visualize weather data.  It is not intended as a substitute for an official pre-flight weather briefing.

06:45:55 UTC

EGNH METAR
Blackpool International Airport
Blackpool, United Kingdom
Current

26 mins ago

EGNH 210620Z 31010KT 9999 SCT014 11/08 Q1018
Observed
May-21 @ 06:20 UTC
Wind
  • 310° at 10 KTS
Visibility
10,000+ meters
Flight Rules
VFR
Cloud Levels
  • Scattered at 1,400' AGL
Temperature
11°C / 52°F
Dewpoint
C / 46°F
Humidity
82%
Altimeter
30.06" Hg
Pressure
1017.92 hPa
Previous

56 mins ago

EGNH 210550Z 31012KT 9999 FEW012 SCT016 11/08 Q1018
Observed
May-21 @ 05:50 UTC
Wind
  • 310° at 12 KTS
Visibility
10,000+ meters
Flight Rules
VFR
Cloud Levels
  • Few at 1,200' AGL
  • Scattered at 1,600' AGL
Temperature
11°C / 52°F
Dewpoint
C / 46°F
Humidity
82%
Altimeter
30.06" Hg
Pressure
1017.92 hPa
Previous

1 hour ago

EGNH 210520Z 29013KT 9999 FEW012 SCT018 11/08 Q1018
Observed
May-21 @ 05:20 UTC
Wind
  • 290° at 13 KTS
Visibility
10,000+ meters
Flight Rules
VFR
Cloud Levels
  • Few at 1,200' AGL
  • Scattered at 1,800' AGL
Temperature
11°C / 52°F
Dewpoint
C / 46°F
Humidity
82%
Altimeter
30.06" Hg
Pressure
1017.92 hPa